Pleasant Hill, Ohio
Current Conditions -  °F | °C
As of 4:56 PM on Thursday 23 Oct 2014 (Local Time) from KDAY Reporting Station
Scattered Clouds Scattered Clouds  
Wind Chill: 60°   Ceiling: Unl
Heat Index: 60°   Visibility: 10mi
Dew Point: 40°   Wind: 3mph
Humidity: 47%   Direction: 60°ENE
Pressure: 30.15"   Gusts: NA
Location:  40.05°N, 84.34°W
Report Text: KDAY 232056Z 06003KT 10SM SCT250 16/04 A3015 RMK AO2 SLP211 T01560044 56018
Loading
Personal Weather Stations






























Interactive Weather Map
Tropical Storm Tracking
New forecast layout! Learn more

10-Day Weather Forecast

Advertisements
Track Severe Weather on mobile